sensor_id;sensor_type;location;lat;lon;timestamp;pressure;altitude;pressure_sealevel;temperature;humidity
7309;BME280;3695;53.330;9.876;2022-12-07T00:00:08;113846.41;;;3.13;62.23
7309;BME280;3695;53.330;9.876;2022-12-07T00:02:36;113825.41;;;3.09;62.18
7309;BME280;3695;53.330;9.876;2022-12-07T00:05:03;113901.88;;;3.22;61.88
7309;BME280;3695;53.330;9.876;2022-12-07T00:07:29;113995.94;;;3.30;61.59
7309;BME280;3695;53.330;9.876;2022-12-07T00:09:56;114004.00;;;3.30;61.51
7309;BME280;3695;53.330;9.876;2022-12-07T00:12:22;114011.91;;;3.29;61.44
7309;BME280;3695;53.330;9.876;2022-12-07T00:14:49;114059.53;;;3.38;61.22
7309;BME280;3695;53.330;9.876;2022-12-07T00:17:15;114086.56;;;3.40;61.12
7309;BME280;3695;53.330;9.876;2022-12-07T00:19:43;114049.41;;;3.27;61.26
7309;BME280;3695;53.330;9.876;2022-12-07T00:22:09;114115.69;;;3.44;60.95
7309;BME280;3695;53.330;9.876;2022-12-07T00:24:36;114050.81;;;3.24;61.20
7309;BME280;3695;53.330;9.876;2022-12-07T00:27:02;114151.91;;;3.47;60.81
7309;BME280;3695;53.330;9.876;2022-12-07T00:29:29;114099.56;;;3.35;60.92
7309;BME280;3695;53.330;9.876;2022-12-07T00:31:55;114149.06;;;3.46;60.71
7309;BME280;3695;53.330;9.876;2022-12-07T00:34:22;114182.75;;;3.51;60.54
7309;BME280;3695;53.330;9.876;2022-12-07T00:36:50;114219.44;;;3.59;60.39
7309;BME280;3695;53.330;9.876;2022-12-07T00:39:16;114162.50;;;3.46;60.55
7309;BME280;3695;53.330;9.876;2022-12-07T00:41:43;114171.97;;;3.51;60.43
7309;BME280;3695;53.330;9.876;2022-12-07T00:44:10;114232.75;;;3.58;60.22
7309;BME280;3695;53.330;9.876;2022-12-07T00:46:36;114224.50;;;3.56;60.23
7309;BME280;3695;53.330;9.876;2022-12-07T00:49:03;114234.97;;;3.53;60.16
7309;BME280;3695;53.330;9.876;2022-12-07T00:51:29;114262.34;;;3.58;60.05
7309;BME280;3695;53.330;9.876;2022-12-07T00:53:57;114296.81;;;3.62;59.94
7309;BME280;3695;53.330;9.876;2022-12-07T00:56:26;114326.56;;;3.63;59.86
7309;BME280;3695;53.330;9.876;2022-12-07T00:58:54;114267.22;;;3.53;59.97
7309;BME280;3695;53.330;9.876;2022-12-07T01:01:21;114305.53;;;3.59;59.84
7309;BME280;3695;53.330;9.876;2022-12-07T01:03:48;114353.16;;;3.60;59.75
7309;BME280;3695;53.330;9.876;2022-12-07T01:06:15;114373.59;;;3.67;59.63
7309;BME280;3695;53.330;9.876;2022-12-07T01:08:42;114380.06;;;3.60;59.63
7309;BME280;3695;53.330;9.876;2022-12-07T01:11:12;114436.28;;;3.74;59.38
7309;BME280;3695;53.330;9.876;2022-12-07T01:13:40;114391.94;;;3.62;59.48
7309;BME280;3695;53.330;9.876;2022-12-07T01:16:07;114441.00;;;3.68;59.36
7309;BME280;3695;53.330;9.876;2022-12-07T01:18:36;114448.44;;;3.71;59.27
7309;BME280;3695;53.330;9.876;2022-12-07T01:21:04;114473.00;;;3.74;59.17
7309;BME280;3695;53.330;9.876;2022-12-07T01:23:32;114499.28;;;3.76;59.09
7309;BME280;3695;53.330;9.876;2022-12-07T01:26:00;114520.03;;;3.77;59.02
7309;BME280;3695;53.330;9.876;2022-12-07T01:28:28;114495.31;;;3.73;59.06
7309;BME280;3695;53.330;9.876;2022-12-07T01:30:57;114498.94;;;3.73;59.03
7309;BME280;3695;53.330;9.876;2022-12-07T01:33:23;114501.66;;;3.73;58.98
7309;BME280;3695;53.330;9.876;2022-12-07T01:35:50;114531.56;;;3.76;58.91
7309;BME280;3695;53.330;9.876;2022-12-07T01:38:16;114523.50;;;3.76;58.88
7309;BME280;3695;53.330;9.876;2022-12-07T01:40:43;114517.31;;;3.77;58.85
7309;BME280;3695;53.330;9.876;2022-12-07T01:43:14;114494.84;;;3.77;58.86
7309;BME280;3695;53.330;9.876;2022-12-07T01:45:44;114518.00;;;3.84;58.76
7309;BME280;3695;53.330;9.876;2022-12-07T01:48:13;114530.69;;;3.85;58.70
7309;BME280;3695;53.330;9.876;2022-12-07T01:50:42;114499.34;;;3.85;58.72
7309;BME280;3695;53.330;9.876;2022-12-07T01:53:10;114473.69;;;3.80;58.78
7309;BME280;3695;53.330;9.876;2022-12-07T01:55:40;114397.69;;;3.83;58.80
7309;BME280;3695;53.330;9.876;2022-12-07T01:58:09;114442.34;;;3.81;58.74
7309;BME280;3695;53.330;9.876;2022-12-07T02:00:36;114429.66;;;3.79;58.80
7309;BME280;3695;53.330;9.876;2022-12-07T02:03:07;114464.38;;;3.94;58.61
7309;BME280;3695;53.330;9.876;2022-12-07T02:05:37;114427.47;;;3.84;58.71
7309;BME280;3695;53.330;9.876;2022-12-07T02:08:04;114429.06;;;3.91;58.67
7309;BME280;3695;53.330;9.876;2022-12-07T02:10:32;114405.47;;;3.88;58.70
7309;BME280;3695;53.330;9.876;2022-12-07T02:13:02;114370.00;;;3.84;58.78
7309;BME280;3695;53.330;9.876;2022-12-07T02:15:38;114314.75;;;3.78;58.85
7309;BME280;3695;53.330;9.876;2022-12-07T02:18:14;114289.06;;;3.73;58.92
7309;BME280;3695;53.330;9.876;2022-12-07T02:20:45;114231.94;;;3.59;59.10
7309;BME280;3695;53.330;9.876;2022-12-07T02:23:41;114206.00;;;3.59;59.10
7309;BME280;3695;53.330;9.876;2022-12-07T02:29:22;114092.59;;;3.37;59.45
7309;BME280;3695;53.330;9.876;2022-12-07T02:31:56;114098.91;;;3.46;59.37
7309;BME280;3695;53.330;9.876;2022-12-07T02:34:32;114023.97;;;3.32;59.59
7309;BME280;3695;53.330;9.876;2022-12-07T02:37:02;113937.31;;;3.17;59.82
7309;BME280;3695;53.330;9.876;2022-12-07T02:39:34;113903.00;;;3.15;59.89
7309;BME280;3695;53.330;9.876;2022-12-07T02:42:10;113893.00;;;3.23;59.87
7309;BME280;3695;53.330;9.876;2022-12-07T02:44:41;113859.81;;;3.22;59.90
7309;BME280;3695;53.330;9.876;2022-12-07T02:47:11;113900.22;;;3.41;59.72
7309;BME280;3695;53.330;9.876;2022-12-07T02:49:40;113863.88;;;3.36;59.83
7309;BME280;3695;53.330;9.876;2022-12-07T02:52:06;113773.78;;;3.22;60.11
7309;BME280;3695;53.330;9.876;2022-12-07T02:54:33;113694.50;;;3.08;60.36
7309;BME280;3695;53.330;9.876;2022-12-07T02:57:03;113655.78;;;3.06;60.45
7309;BME280;3695;53.330;9.876;2022-12-07T02:59:44;113664.59;;;3.14;60.42
7309;BME280;3695;53.330;9.876;2022-12-07T03:02:22;113616.00;;;3.02;60.59
7309;BME280;3695;53.330;9.876;2022-12-07T03:04:59;113619.91;;;3.06;60.60
7309;BME280;3695;53.330;9.876;2022-12-07T03:07:33;113568.44;;;3.01;60.73
7309;BME280;3695;53.330;9.876;2022-12-07T03:10:09;113569.66;;;3.05;60.71
7309;BME280;3695;53.330;9.876;2022-12-07T03:12:44;113524.84;;;2.95;60.94
7309;BME280;3695;53.330;9.876;2022-12-07T03:15:15;113566.81;;;3.03;60.80
7309;BME280;3695;53.330;9.876;2022-12-07T03:17:46;113524.63;;;3.02;60.92
7309;BME280;3695;53.330;9.876;2022-12-07T03:20:17;113491.03;;;2.97;61.08
7309;BME280;3695;53.330;9.876;2022-12-07T03:22:46;113435.63;;;2.89;61.21
7309;BME280;3695;53.330;9.876;2022-12-07T03:25:15;113405.19;;;2.80;61.39
7309;BME280;3695;53.330;9.876;2022-12-07T03:27:45;113444.25;;;2.95;61.22
7309;BME280;3695;53.330;9.876;2022-12-07T03:30:18;113370.78;;;2.76;61.54
7309;BME280;3695;53.330;9.876;2022-12-07T03:32:48;113366.34;;;2.76;61.59
7309;BME280;3695;53.330;9.876;2022-12-07T03:35:20;113304.94;;;2.61;61.86
7309;BME280;3695;53.330;9.876;2022-12-07T03:37:51;113283.16;;;2.58;61.97
7309;BME280;3695;53.330;9.876;2022-12-07T03:40:22;113279.03;;;2.61;61.93
7309;BME280;3695;53.330;9.876;2022-12-07T03:42:51;113271.75;;;2.60;62.04
7309;BME280;3695;53.330;9.876;2022-12-07T03:45:23;113226.59;;;2.46;62.25
7309;BME280;3695;53.330;9.876;2022-12-07T03:47:57;113180.41;;;2.40;62.41
7309;BME280;3695;53.330;9.876;2022-12-07T03:50:30;113224.63;;;2.53;62.27
7309;BME280;3695;53.330;9.876;2022-12-07T03:53:00;113184.47;;;2.45;62.44
7309;BME280;3695;53.330;9.876;2022-12-07T03:55:31;113183.00;;;2.48;62.47
7309;BME280;3695;53.330;9.876;2022-12-07T03:58:02;113120.63;;;2.32;62.76
7309;BME280;3695;53.330;9.876;2022-12-07T04:00:32;113102.94;;;2.34;62.82
7309;BME280;3695;53.330;9.876;2022-12-07T04:02:58;113113.44;;;2.41;62.77
7309;BME280;3695;53.330;9.876;2022-12-07T04:05:25;113074.22;;;2.33;62.97
7309;BME280;3695;53.330;9.876;2022-12-07T04:07:52;113061.06;;;2.36;63.03
7309;BME280;3695;53.330;9.876;2022-12-07T04:10:18;112996.91;;;2.19;63.37
7309;BME280;3695;53.330;9.876;2022-12-07T04:12:45;112966.31;;;2.17;63.51
7309;BME280;3695;53.330;9.876;2022-12-07T04:15:12;113003.34;;;2.31;63.36
7309;BME280;3695;53.330;9.876;2022-12-07T04:17:39;112970.88;;;2.28;63.49
7309;BME280;3695;53.330;9.876;2022-12-07T04:20:07;112901.66;;;2.14;63.85
7309;BME280;3695;53.330;9.876;2022-12-07T04:22:34;112916.69;;;2.22;63.80
7309;BME280;3695;53.330;9.876;2022-12-07T04:25:01;112902.19;;;2.20;63.90
7309;BME280;3695;53.330;9.876;2022-12-07T04:27:27;112881.25;;;2.26;63.95
7309;BME280;3695;53.330;9.876;2022-12-07T04:29:54;112943.56;;;2.42;63.70
7309;BME280;3695;53.330;9.876;2022-12-07T04:32:21;112825.19;;;2.19;64.31
7309;BME280;3695;53.330;9.876;2022-12-07T04:34:49;112866.91;;;2.36;64.03
7309;BME280;3695;53.330;9.876;2022-12-07T04:37:15;112873.50;;;2.39;64.09
7309;BME280;3695;53.330;9.876;2022-12-07T04:39:42;112839.44;;;2.38;64.24
7309;BME280;3695;53.330;9.876;2022-12-07T04:42:10;112792.44;;;2.33;64.44
7309;BME280;3695;53.330;9.876;2022-12-07T04:44:38;112753.16;;;2.24;64.72
7309;BME280;3695;53.330;9.876;2022-12-07T04:47:04;112717.06;;;2.20;64.91
7309;BME280;3695;53.330;9.876;2022-12-07T04:49:31;112723.50;;;2.22;64.94
7309;BME280;3695;53.330;9.876;2022-12-07T04:51:58;112720.78;;;2.32;64.88
7309;BME280;3695;53.330;9.876;2022-12-07T04:54:25;112675.91;;;2.19;65.19
7309;BME280;3695;53.330;9.876;2022-12-07T04:56:51;112699.31;;;2.32;65.00
7309;BME280;3695;53.330;9.876;2022-12-07T04:59:18;112697.44;;;2.31;65.06
7309;BME280;3695;53.330;9.876;2022-12-07T05:01:44;112680.28;;;2.29;65.16
7309;BME280;3695;53.330;9.876;2022-12-07T05:04:12;112679.59;;;2.32;65.17
7309;BME280;3695;53.330;9.876;2022-12-07T05:06:38;112692.19;;;2.43;65.06
7309;BME280;3695;53.330;9.876;2022-12-07T05:09:06;112627.56;;;2.30;65.39
7309;BME280;3695;53.330;9.876;2022-12-07T05:11:33;112616.69;;;2.28;65.51
7309;BME280;3695;53.330;9.876;2022-12-07T05:14:08;112546.63;;;2.13;65.94
7309;BME280;3695;53.330;9.876;2022-12-07T05:16:35;112516.75;;;2.09;66.07
7309;BME280;3695;53.330;9.876;2022-12-07T05:19:02;112535.47;;;2.19;65.94
7309;BME280;3695;53.330;9.876;2022-12-07T05:21:29;112503.50;;;2.22;66.03
7309;BME280;3695;53.330;9.876;2022-12-07T05:23:55;112468.97;;;2.15;66.26
7309;BME280;3695;53.330;9.876;2022-12-07T05:26:23;112453.06;;;2.06;66.47
7309;BME280;3695;53.330;9.876;2022-12-07T05:28:51;112421.31;;;2.01;66.67
7309;BME280;3695;53.330;9.876;2022-12-07T05:31:17;112421.81;;;2.07;66.63
7309;BME280;3695;53.330;9.876;2022-12-07T05:33:44;112412.94;;;2.08;66.67
7309;BME280;3695;53.330;9.876;2022-12-07T05:36:10;112411.56;;;2.13;66.70
7309;BME280;3695;53.330;9.876;2022-12-07T05:38:37;112367.69;;;2.01;67.01
7309;BME280;3695;53.330;9.876;2022-12-07T05:41:04;112303.56;;;1.82;67.47
7309;BME280;3695;53.330;9.876;2022-12-07T05:43:32;112293.78;;;1.82;67.46
7309;BME280;3695;53.330;9.876;2022-12-07T05:45:59;112330.47;;;1.94;67.30
7309;BME280;3695;53.330;9.876;2022-12-07T05:48:26;112310.88;;;1.95;67.36
7309;BME280;3695;53.330;9.876;2022-12-07T05:50:53;112301.91;;;1.94;67.39
7309;BME280;3695;53.330;9.876;2022-12-07T05:53:19;112246.69;;;1.74;67.85
7309;BME280;3695;53.330;9.876;2022-12-07T05:55:46;112222.75;;;1.66;68.05
7309;BME280;3695;53.330;9.876;2022-12-07T05:58:13;112271.41;;;1.82;67.71
7309;BME280;3695;53.330;9.876;2022-12-07T06:00:58;112235.16;;;1.75;67.90
7309;BME280;3695;53.330;9.876;2022-12-07T06:03:24;112196.66;;;1.63;68.19
7309;BME280;3695;53.330;9.876;2022-12-07T06:05:52;112134.50;;;1.45;68.62
7309;BME280;3695;53.330;9.876;2022-12-07T06:08:18;112157.81;;;1.46;68.60
7309;BME280;3695;53.330;9.876;2022-12-07T06:10:46;112145.66;;;1.40;68.76
7309;BME280;3695;53.330;9.876;2022-12-07T06:13:33;112139.25;;;1.38;68.79
7309;BME280;3695;53.330;9.876;2022-12-07T06:16:00;112146.03;;;1.44;68.73
7309;BME280;3695;53.330;9.876;2022-12-07T06:18:27;112215.16;;;1.60;68.37
7309;BME280;3695;53.330;9.876;2022-12-07T06:20:53;112224.97;;;1.60;68.39
7309;BME280;3695;53.330;9.876;2022-12-07T06:23:20;112227.63;;;1.60;68.41
7309;BME280;3695;53.330;9.876;2022-12-07T06:25:46;112260.16;;;1.64;68.25
7309;BME280;3695;53.330;9.876;2022-12-07T06:28:12;112328.63;;;1.82;67.81
7309;BME280;3695;53.330;9.876;2022-12-07T06:30:39;112292.94;;;1.72;68.08
7309;BME280;3695;53.330;9.876;2022-12-07T06:33:07;112293.38;;;1.66;68.13
7309;BME280;3695;53.330;9.876;2022-12-07T06:35:33;112361.31;;;1.88;67.65
7309;BME280;3695;53.330;9.876;2022-12-07T06:38:00;112368.56;;;1.89;67.61
7309;BME280;3695;53.330;9.876;2022-12-07T06:40:26;112330.84;;;1.76;67.90
7309;BME280;3695;53.330;9.876;2022-12-07T06:42:53;112350.91;;;1.81;67.80
7309;BME280;3695;53.330;9.876;2022-12-07T06:45:19;112289.66;;;1.64;68.17
7309;BME280;3695;53.330;9.876;2022-12-07T06:47:45;112293.38;;;1.66;68.10
7309;BME280;3695;53.330;9.876;2022-12-07T06:50:13;112365.72;;;1.88;67.60
7309;BME280;3695;53.330;9.876;2022-12-07T06:52:40;112375.81;;;1.91;67.55
7309;BME280;3695;53.330;9.876;2022-12-07T06:55:07;112353.94;;;1.86;67.71
7309;BME280;3695;53.330;9.876;2022-12-07T06:57:33;112333.75;;;1.79;67.83
7309;BME280;3695;53.330;9.876;2022-12-07T06:59:59;112315.00;;;1.79;67.82
7309;BME280;3695;53.330;9.876;2022-12-07T07:02:26;112355.41;;;1.93;67.59
7309;BME280;3695;53.330;9.876;2022-12-07T07:04:52;112348.22;;;1.81;67.77
7309;BME280;3695;53.330;9.876;2022-12-07T07:07:20;112419.00;;;2.05;67.23
7309;BME280;3695;53.330;9.876;2022-12-07T07:09:47;112349.16;;;1.82;67.74
7309;BME280;3695;53.330;9.876;2022-12-07T07:12:13;112397.63;;;1.95;67.42
7309;BME280;3695;53.330;9.876;2022-12-07T07:14:39;112350.66;;;1.78;67.73
7309;BME280;3695;53.330;9.876;2022-12-07T07:17:07;112377.28;;;1.87;67.57
7309;BME280;3695;53.330;9.876;2022-12-07T07:19:33;112377.38;;;1.88;67.50
7309;BME280;3695;53.330;9.876;2022-12-07T07:22:00;112413.03;;;1.98;67.37
7309;BME280;3695;53.330;9.876;2022-12-07T07:24:27;112407.41;;;1.95;67.35
7309;BME280;3695;53.330;9.876;2022-12-07T07:26:54;112371.53;;;1.82;67.64
7309;BME280;3695;53.330;9.876;2022-12-07T07:29:20;112407.28;;;1.93;67.39
7309;BME280;3695;53.330;9.876;2022-12-07T07:31:47;112431.34;;;2.03;67.22
7309;BME280;3695;53.330;9.876;2022-12-07T07:34:13;112434.72;;;2.01;67.19
7309;BME280;3695;53.330;9.876;2022-12-07T07:36:40;112451.19;;;2.05;67.15
7309;BME280;3695;53.330;9.876;2022-12-07T07:39:07;112441.84;;;2.00;67.21
7309;BME280;3695;53.330;9.876;2022-12-07T07:41:34;112488.41;;;2.12;66.93
7309;BME280;3695;53.330;9.876;2022-12-07T07:44:01;112440.66;;;1.97;67.22
7309;BME280;3695;53.330;9.876;2022-12-07T07:46:27;112514.69;;;2.16;66.83
7309;BME280;3695;53.330;9.876;2022-12-07T07:48:54;112484.19;;;2.04;67.00
7309;BME280;3695;53.330;9.876;2022-12-07T07:51:20;112540.56;;;2.16;66.73
7309;BME280;3695;53.330;9.876;2022-12-07T07:53:47;112589.19;;;2.31;66.44
7309;BME280;3695;53.330;9.876;2022-12-07T07:56:13;112577.25;;;2.27;66.48
7309;BME280;3695;53.330;9.876;2022-12-07T07:58:41;112597.59;;;2.35;66.34
7309;BME280;3695;53.330;9.876;2022-12-07T08:01:08;112595.47;;;2.31;66.38
7309;BME280;3695;53.330;9.876;2022-12-07T08:03:34;112644.16;;;2.46;66.11
7309;BME280;3695;53.330;9.876;2022-12-07T08:06:02;112645.34;;;2.49;66.05
7309;BME280;3695;53.330;9.876;2022-12-07T08:08:28;112623.22;;;2.42;66.22
7309;BME280;3695;53.330;9.876;2022-12-07T08:10:55;112583.69;;;2.29;66.42
7309;BME280;3695;53.330;9.876;2022-12-07T08:13:21;112618.56;;;2.39;66.20
7309;BME280;3695;53.330;9.876;2022-12-07T08:15:49;112637.72;;;2.44;66.10
7309;BME280;3695;53.330;9.876;2022-12-07T08:18:15;112647.50;;;2.43;66.09
7309;BME280;3695;53.330;9.876;2022-12-07T08:20:42;112667.06;;;2.52;65.91
7309;BME280;3695;53.330;9.876;2022-12-07T08:23:09;112681.53;;;2.55;65.84
7309;BME280;3695;53.330;9.876;2022-12-07T08:25:36;112686.59;;;2.62;65.76
7309;BME280;3695;53.330;9.876;2022-12-07T08:28:03;112665.69;;;2.58;65.85
7309;BME280;3695;53.330;9.876;2022-12-07T08:30:30;112649.19;;;2.53;65.96
7309;BME280;3695;53.330;9.876;2022-12-07T08:32:58;112650.50;;;2.58;65.88
7309;BME280;3695;53.330;9.876;2022-12-07T08:35:25;112572.53;;;2.35;66.34
7309;BME280;3695;53.330;9.876;2022-12-07T08:37:51;112653.06;;;2.57;65.83
7309;BME280;3695;53.330;9.876;2022-12-07T08:40:18;112608.19;;;2.44;66.13
7309;BME280;3695;53.330;9.876;2022-12-07T08:42:48;112667.56;;;2.59;65.82
7309;BME280;3695;53.330;9.876;2022-12-07T08:45:16;112674.13;;;2.62;65.79
7309;BME280;3695;53.330;9.876;2022-12-07T08:47:45;112698.09;;;2.71;65.62
7309;BME280;3695;53.330;9.876;2022-12-07T08:50:16;112602.69;;;2.42;66.17
7309;BME280;3695;53.330;9.876;2022-12-07T08:52:43;112655.19;;;2.61;65.82
7309;BME280;3695;53.330;9.876;2022-12-07T08:55:11;112684.66;;;2.71;65.68
7309;BME280;3695;53.330;9.876;2022-12-07T08:57:39;112682.25;;;2.74;65.65
7309;BME280;3695;53.330;9.876;2022-12-07T09:00:06;112638.78;;;2.68;65.85
7309;BME280;3695;53.330;9.876;2022-12-07T09:02:33;112611.31;;;2.60;66.02
7309;BME280;3695;53.330;9.876;2022-12-07T09:04:59;112676.56;;;2.81;65.64
7309;BME280;3695;53.330;9.876;2022-12-07T09:07:27;112636.84;;;2.77;65.78
7309;BME280;3695;53.330;9.876;2022-12-07T09:09:56;112626.09;;;2.77;65.84
7309;BME280;3695;53.330;9.876;2022-12-07T09:12:22;112672.31;;;2.95;65.52
7309;BME280;3695;53.330;9.876;2022-12-07T09:14:49;112686.94;;;2.98;65.47
7309;BME280;3695;53.330;9.876;2022-12-07T09:17:15;112646.97;;;2.91;65.70
7309;BME280;3695;53.330;9.876;2022-12-07T09:19:42;112742.66;;;3.23;65.17
7309;BME280;3695;53.330;9.876;2022-12-07T09:22:08;112720.00;;;3.31;65.21
7309;BME280;3695;53.330;9.876;2022-12-07T09:24:37;112651.84;;;3.19;65.57
7309;BME280;3695;53.330;9.876;2022-12-07T09:27:03;112644.44;;;3.04;65.82
7309;BME280;3695;53.330;9.876;2022-12-07T09:29:30;112638.38;;;3.07;65.83
7309;BME280;3695;53.330;9.876;2022-12-07T09:31:56;112561.88;;;2.80;66.33
7309;BME280;3695;53.330;9.876;2022-12-07T09:34:23;112632.66;;;3.02;66.03
7309;BME280;3695;53.330;9.876;2022-12-07T09:36:51;112598.25;;;2.87;66.28
7309;BME280;3695;53.330;9.876;2022-12-07T09:39:18;112567.66;;;2.84;66.38
7309;BME280;3695;53.330;9.876;2022-12-07T09:41:45;112545.59;;;2.89;66.39
7309;BME280;3695;53.330;9.876;2022-12-07T09:44:13;112421.75;;;2.50;67.09
7309;BME280;3695;53.330;9.876;2022-12-07T09:46:42;112382.31;;;2.49;67.34
7309;BME280;3695;53.330;9.876;2022-12-07T09:49:12;112386.16;;;2.65;67.22
7309;BME280;3695;53.330;9.876;2022-12-07T09:51:40;112307.16;;;2.38;67.92
7309;BME280;3695;53.330;9.876;2022-12-07T09:54:09;112327.00;;;2.51;67.71
7309;BME280;3695;53.330;9.876;2022-12-07T09:56:38;112335.50;;;2.69;67.55
7309;BME280;3695;53.330;9.876;2022-12-07T09:59:12;112417.16;;;2.95;67.08
7309;BME280;3695;53.330;9.876;2022-12-07T10:01:39;112319.31;;;2.91;67.55
7309;BME280;3695;53.330;9.876;2022-12-07T10:04:11;112357.47;;;3.10;67.32
7309;BME280;3695;53.330;9.876;2022-12-07T10:06:39;112216.69;;;2.72;68.33
7309;BME280;3695;53.330;9.876;2022-12-07T10:09:09;112200.34;;;2.69;68.45
7309;BME280;3695;53.330;9.876;2022-12-07T10:12:04;112177.78;;;2.78;68.53
7309;BME280;3695;53.330;9.876;2022-12-07T10:14:34;112214.47;;;2.90;68.42
7309;BME280;3695;53.330;9.876;2022-12-07T10:17:02;112223.91;;;2.96;68.48
7309;BME280;3695;53.330;9.876;2022-12-07T10:19:30;112214.09;;;3.22;68.37
7309;BME280;3695;53.330;9.876;2022-12-07T10:22:09;112245.03;;;3.28;68.24
7309;BME280;3695;53.330;9.876;2022-12-07T10:24:36;112189.25;;;3.12;68.74
7309;BME280;3695;53.330;9.876;2022-12-07T10:27:05;112156.69;;;3.08;69.06
7309;BME280;3695;53.330;9.876;2022-12-07T10:29:34;112190.13;;;3.25;68.91
7309;BME280;3695;53.330;9.876;2022-12-07T10:32:04;112222.59;;;3.39;68.74
7309;BME280;3695;53.330;9.876;2022-12-07T10:34:33;112125.84;;;3.14;69.55
7309;BME280;3695;53.330;9.876;2022-12-07T10:37:15;112200.25;;;3.40;69.05
7309;BME280;3695;53.330;9.876;2022-12-07T10:39:43;112115.63;;;3.22;69.65
7309;BME280;3695;53.330;9.876;2022-12-07T10:42:17;112133.94;;;3.28;69.61
7309;BME280;3695;53.330;9.876;2022-12-07T10:44:46;112111.78;;;3.19;69.89
7309;BME280;3695;53.330;9.876;2022-12-07T10:47:27;112082.84;;;3.14;70.10
7309;BME280;3695;53.330;9.876;2022-12-07T10:50:11;112066.50;;;3.11;70.27
7309;BME280;3695;53.330;9.876;2022-12-07T10:52:51;112092.78;;;3.15;70.22
7309;BME280;3695;53.330;9.876;2022-12-07T10:55:26;112123.91;;;3.25;69.97
7309;BME280;3695;53.330;9.876;2022-12-07T10:58:12;112183.09;;;3.38;69.60
7309;BME280;3695;53.330;9.876;2022-12-07T11:00:51;112151.16;;;3.43;69.74
7309;BME280;3695;53.330;9.876;2022-12-07T11:03:30;112193.53;;;3.34;69.71
7309;BME280;3695;53.330;9.876;2022-12-07T11:06:22;112233.72;;;3.57;69.34
7309;BME280;3695;53.330;9.876;2022-12-07T11:09:03;112161.28;;;3.34;69.90
7309;BME280;3695;53.330;9.876;2022-12-07T11:11:36;112206.22;;;3.61;69.41
7309;BME280;3695;53.330;9.876;2022-12-07T11:14:15;112133.19;;;3.42;69.96
7309;BME280;3695;53.330;9.876;2022-12-07T11:16:55;112130.63;;;3.57;69.85
7309;BME280;3695;53.330;9.876;2022-12-07T11:19:34;112121.22;;;3.63;69.93
7309;BME280;3695;53.330;9.876;2022-12-07T11:22:14;112134.09;;;3.81;69.76
7309;BME280;3695;53.330;9.876;2022-12-07T11:24:49;112037.25;;;3.54;70.61
7309;BME280;3695;53.330;9.876;2022-12-07T11:27:24;112108.34;;;3.84;70.10
7309;BME280;3695;53.330;9.876;2022-12-07T11:30:13;112085.38;;;3.89;70.18
7309;BME280;3695;53.330;9.876;2022-12-07T11:35:54;111993.41;;;3.82;70.88
7309;BME280;3695;53.330;9.876;2022-12-07T11:38:26;111986.28;;;3.82;71.09
7309;BME280;3695;53.330;9.876;2022-12-07T11:41:01;111993.81;;;3.88;71.18
7309;BME280;3695;53.330;9.876;2022-12-07T11:43:49;111956.56;;;3.94;71.37
7309;BME280;3695;53.330;9.876;2022-12-07T11:46:17;111926.38;;;3.85;71.81
7309;BME280;3695;53.330;9.876;2022-12-07T11:48:47;111878.91;;;3.72;72.29
7309;BME280;3695;53.330;9.876;2022-12-07T11:51:20;111915.81;;;3.88;72.08
7309;BME280;3695;53.330;9.876;2022-12-07T11:53:51;111930.50;;;3.93;72.11
7309;BME280;3695;53.330;9.876;2022-12-07T11:56:21;111897.81;;;3.87;72.52
7309;BME280;3695;53.330;9.876;2022-12-07T11:58:51;111846.25;;;3.79;72.97
7309;BME280;3695;53.330;9.876;2022-12-07T12:01:31;111889.00;;;4.17;72.27
7309;BME280;3695;53.330;9.876;2022-12-07T12:04:07;111827.19;;;4.04;72.66
7309;BME280;3695;53.330;9.876;2022-12-07T12:06:43;111752.59;;;3.87;73.37
7309;BME280;3695;53.330;9.876;2022-12-07T12:09:13;111845.56;;;4.11;72.76
7309;BME280;3695;53.330;9.876;2022-12-07T12:11:53;111712.50;;;3.76;74.07
7309;BME280;3695;53.330;9.876;2022-12-07T12:14:44;111768.38;;;3.95;73.53
7309;BME280;3695;53.330;9.876;2022-12-07T12:20:20;111796.94;;;4.08;73.47
7309;BME280;3695;53.330;9.876;2022-12-07T12:22:52;111835.09;;;4.16;73.26
7309;BME280;3695;53.330;9.876;2022-12-07T12:25:24;111821.91;;;4.20;73.31
7309;BME280;3695;53.330;9.876;2022-12-07T12:27:53;111800.56;;;4.23;73.45
7309;BME280;3695;53.330;9.876;2022-12-07T12:30:30;111755.31;;;4.16;73.85
7309;BME280;3695;53.330;9.876;2022-12-07T12:33:03;111782.50;;;4.35;73.49
7309;BME280;3695;53.330;9.876;2022-12-07T12:35:32;111766.94;;;4.30;73.83
7309;BME280;3695;53.330;9.876;2022-12-07T12:38:32;111791.13;;;4.45;73.58
7309;BME280;3695;53.330;9.876;2022-12-07T12:41:00;111808.50;;;4.50;73.59
7309;BME280;3695;53.330;9.876;2022-12-07T12:43:49;111724.63;;;4.27;74.29
7309;BME280;3695;53.330;9.876;2022-12-07T12:46:51;111655.38;;;4.10;74.88
7309;BME280;3695;53.330;9.876;2022-12-07T12:49:41;111655.84;;;4.18;74.91
7309;BME280;3695;53.330;9.876;2022-12-07T12:55:16;111579.03;;;4.08;75.54
7309;BME280;3695;53.330;9.876;2022-12-07T12:57:46;111633.28;;;4.16;75.11
7309;BME280;3695;53.330;9.876;2022-12-07T13:00:17;111621.44;;;4.12;75.29
7309;BME280;3695;53.330;9.876;2022-12-07T13:02:48;111573.22;;;4.00;75.79
7309;BME280;3695;53.330;9.876;2022-12-07T13:05:19;111600.25;;;4.18;75.40
7309;BME280;3695;53.330;9.876;2022-12-07T13:08:03;111426.28;;;3.71;77.06
7309;BME280;3695;53.330;9.876;2022-12-07T13:10:44;111444.00;;;3.83;76.91
7309;BME280;3695;53.330;9.876;2022-12-07T13:13:30;111425.44;;;3.87;77.05
7309;BME280;3695;53.330;9.876;2022-12-07T13:16:36;111439.16;;;4.08;76.73
7309;BME280;3695;53.330;9.876;2022-12-07T13:22:40;111286.09;;;3.96;77.86
7309;BME280;3695;53.330;9.876;2022-12-07T13:25:11;111274.41;;;3.96;78.19
7309;BME280;3695;53.330;9.876;2022-12-07T13:27:40;111283.81;;;4.04;78.26
7309;BME280;3695;53.330;9.876;2022-12-07T13:30:14;111218.78;;;3.95;78.87
7309;BME280;3695;53.330;9.876;2022-12-07T13:32:41;111085.34;;;3.63;80.42
7309;BME280;3695;53.330;9.876;2022-12-07T13:35:27;111107.28;;;3.88;79.80
7309;BME280;3695;53.330;9.876;2022-12-07T13:37:55;111043.63;;;3.71;80.82
7309;BME280;3695;53.330;9.876;2022-12-07T13:40:22;111060.66;;;3.88;80.63
7309;BME280;3695;53.330;9.876;2022-12-07T13:42:57;111064.81;;;3.99;80.41
7309;BME280;3695;53.330;9.876;2022-12-07T13:45:26;110995.97;;;3.85;81.21
7309;BME280;3695;53.330;9.876;2022-12-07T13:48:16;110939.38;;;3.82;81.74
7309;BME280;3695;53.330;9.876;2022-12-07T13:50:52;110934.97;;;3.84;81.91
7309;BME280;3695;53.330;9.876;2022-12-07T13:53:21;110920.53;;;3.82;82.23